sensor_id;sensor_type;location;lat;lon;timestamp;P1;durP1;ratioP1;P2;durP2;ratioP2
57025;SDS011;43961;52.940;6.834;2022-09-12T00:01:56;31.02;;;24.85;;
57025;SDS011;43961;52.940;6.834;2022-09-12T00:04:22;29.35;;;24.33;;
57025;SDS011;43961;52.940;6.834;2022-09-12T00:06:47;27.63;;;23.05;;
57025;SDS011;43961;52.940;6.834;2022-09-12T00:09:13;26.50;;;23.00;;
57025;SDS011;43961;52.940;6.834;2022-09-12T00:11:41;25.95;;;23.25;;
57025;SDS011;43961;52.940;6.834;2022-09-12T00:14:09;28.38;;;25.27;;
57025;SDS011;43961;52.940;6.834;2022-09-12T00:19:03;31.15;;;26.20;;
57025;SDS011;43961;52.940;6.834;2022-09-12T00:21:31;28.20;;;25.05;;
57025;SDS011;43961;52.940;6.834;2022-09-12T00:23:58;37.95;;;23.80;;
57025;SDS011;43961;52.940;6.834;2022-09-12T00:26:24;22.02;;;19.67;;
57025;SDS011;43961;52.940;6.834;2022-09-12T00:28:50;17.30;;;15.35;;
57025;SDS011;43961;52.940;6.834;2022-09-12T00:31:17;16.58;;;15.07;;
57025;SDS011;43961;52.940;6.834;2022-09-12T00:33:47;17.77;;;16.08;;
57025;SDS011;43961;52.940;6.834;2022-09-12T00:36:14;25.33;;;20.83;;
57025;SDS011;43961;52.940;6.834;2022-09-12T00:38:42;19.40;;;17.45;;
57025;SDS011;43961;52.940;6.834;2022-09-12T00:41:20;14.20;;;11.55;;
57025;SDS011;43961;52.940;6.834;2022-09-12T00:43:50;16.67;;;15.07;;
57025;SDS011;43961;52.940;6.834;2022-09-12T00:48:56;20.25;;;15.25;;
57025;SDS011;43961;52.940;6.834;2022-09-12T00:51:30;19.05;;;17.30;;
57025;SDS011;43961;52.940;6.834;2022-09-12T00:53:57;16.95;;;15.45;;
57025;SDS011;43961;52.940;6.834;2022-09-12T00:56:25;20.52;;;18.45;;
57025;SDS011;43961;52.940;6.834;2022-09-12T00:59:01;21.00;;;18.80;;
57025;SDS011;43961;52.940;6.834;2022-09-12T01:01:32;21.40;;;19.40;;
57025;SDS011;43961;52.940;6.834;2022-09-12T01:03:59;21.02;;;18.83;;
57025;SDS011;43961;52.940;6.834;2022-09-12T01:06:35;21.38;;;19.23;;
57025;SDS011;43961;52.940;6.834;2022-09-12T01:09:05;22.10;;;19.90;;
57025;SDS011;43961;52.940;6.834;2022-09-12T01:11:35;18.45;;;16.83;;
57025;SDS011;43961;52.940;6.834;2022-09-12T01:14:03;16.67;;;15.27;;
57025;SDS011;43961;52.940;6.834;2022-09-12T01:16:35;17.90;;;16.42;;
57025;SDS011;43961;52.940;6.834;2022-09-12T01:24:52;20.20;;;18.08;;
57025;SDS011;43961;52.940;6.834;2022-09-12T01:30:58;23.88;;;19.35;;
57025;SDS011;43961;52.940;6.834;2022-09-12T01:39:15;23.90;;;21.25;;
57025;SDS011;43961;52.940;6.834;2022-09-12T01:41:53;29.08;;;25.80;;
57025;SDS011;43961;52.940;6.834;2022-09-12T01:47:28;31.73;;;28.33;;
57025;SDS011;43961;52.940;6.834;2022-09-12T01:50:24;33.88;;;29.90;;
57025;SDS011;43961;52.940;6.834;2022-09-12T01:52:55;19.10;;;17.08;;
57025;SDS011;43961;52.940;6.834;2022-09-12T01:55:35;17.58;;;15.77;;
57025;SDS011;43961;52.940;6.834;2022-09-12T01:58:08;14.27;;;12.98;;
57025;SDS011;43961;52.940;6.834;2022-09-12T02:00:43;18.35;;;16.55;;
57025;SDS011;43961;52.940;6.834;2022-09-12T02:03:25;23.83;;;21.40;;
57025;SDS011;43961;52.940;6.834;2022-09-12T02:05:55;29.38;;;24.77;;
57025;SDS011;43961;52.940;6.834;2022-09-12T02:08:27;26.98;;;24.10;;
57025;SDS011;43961;52.940;6.834;2022-09-12T02:11:30;28.60;;;24.70;;
57025;SDS011;43961;52.940;6.834;2022-09-12T02:14:03;37.10;;;25.52;;
57025;SDS011;43961;52.940;6.834;2022-09-12T02:16:56;19.70;;;17.70;;
57025;SDS011;43961;52.940;6.834;2022-09-12T02:19:42;17.10;;;15.50;;
57025;SDS011;43961;52.940;6.834;2022-09-12T02:22:12;26.40;;;23.70;;
57025;SDS011;43961;52.940;6.834;2022-09-12T02:24:42;35.85;;;27.42;;
57025;SDS011;43961;52.940;6.834;2022-09-12T02:30:01;34.15;;;28.83;;
57025;SDS011;43961;52.940;6.834;2022-09-12T02:40:26;36.97;;;32.08;;
57025;SDS011;43961;52.940;6.834;2022-09-12T02:42:54;33.03;;;29.33;;
57025;SDS011;43961;52.940;6.834;2022-09-12T02:45:20;37.13;;;32.47;;
57025;SDS011;43961;52.940;6.834;2022-09-12T02:47:48;38.33;;;31.50;;
57025;SDS011;43961;52.940;6.834;2022-09-12T02:50:38;26.95;;;19.05;;
57025;SDS011;43961;52.940;6.834;2022-09-12T02:53:04;28.45;;;18.15;;
57025;SDS011;43961;52.940;6.834;2022-09-12T02:55:32;24.48;;;21.90;;
57025;SDS011;43961;52.940;6.834;2022-09-12T03:00:28;21.10;;;19.10;;
57025;SDS011;43961;52.940;6.834;2022-09-12T03:03:05;23.23;;;20.90;;
57025;SDS011;43961;52.940;6.834;2022-09-12T03:05:38;25.02;;;22.52;;
57025;SDS011;43961;52.940;6.834;2022-09-12T03:16:33;28.60;;;24.55;;
57025;SDS011;43961;52.940;6.834;2022-09-12T03:24:42;17.27;;;15.75;;
57025;SDS011;43961;52.940;6.834;2022-09-12T03:32:44;14.98;;;13.68;;
57025;SDS011;43961;52.940;6.834;2022-09-12T03:35:12;18.70;;;16.80;;
57025;SDS011;43961;52.940;6.834;2022-09-12T03:37:40;19.95;;;17.83;;
57025;SDS011;43961;52.940;6.834;2022-09-12T03:40:06;27.55;;;19.63;;
57025;SDS011;43961;52.940;6.834;2022-09-12T03:42:33;75.27;;;24.33;;
57025;SDS011;43961;52.940;6.834;2022-09-12T03:44:59;27.98;;;22.48;;
57025;SDS011;43961;52.940;6.834;2022-09-12T03:47:24;21.27;;;19.25;;
57025;SDS011;43961;52.940;6.834;2022-09-12T03:49:50;18.77;;;17.10;;
57025;SDS011;43961;52.940;6.834;2022-09-12T03:52:16;18.30;;;16.55;;
57025;SDS011;43961;52.940;6.834;2022-09-12T03:54:42;17.95;;;16.30;;
57025;SDS011;43961;52.940;6.834;2022-09-12T03:57:08;20.20;;;18.25;;
57025;SDS011;43961;52.940;6.834;2022-09-12T03:59:34;27.77;;;22.13;;
57025;SDS011;43961;52.940;6.834;2022-09-12T04:02:00;20.50;;;18.40;;
57025;SDS011;43961;52.940;6.834;2022-09-12T04:04:26;22.38;;;19.88;;
57025;SDS011;43961;52.940;6.834;2022-09-12T04:06:51;20.65;;;18.42;;
57025;SDS011;43961;52.940;6.834;2022-09-12T04:09:17;22.95;;;19.65;;
57025;SDS011;43961;52.940;6.834;2022-09-12T04:11:43;23.00;;;20.60;;
57025;SDS011;43961;52.940;6.834;2022-09-12T04:14:08;23.33;;;21.10;;
57025;SDS011;43961;52.940;6.834;2022-09-12T04:16:34;25.50;;;22.25;;
57025;SDS011;43961;52.940;6.834;2022-09-12T04:19:00;22.90;;;20.35;;
57025;SDS011;43961;52.940;6.834;2022-09-12T04:21:26;28.75;;;24.40;;
57025;SDS011;43961;52.940;6.834;2022-09-12T04:23:52;29.67;;;24.95;;
57025;SDS011;43961;52.940;6.834;2022-09-12T04:26:18;27.83;;;24.58;;
57025;SDS011;43961;52.940;6.834;2022-09-12T04:28:44;34.15;;;27.63;;
57025;SDS011;43961;52.940;6.834;2022-09-12T04:31:12;42.85;;;27.90;;
57025;SDS011;43961;52.940;6.834;2022-09-12T04:33:41;40.40;;;30.38;;
57025;SDS011;43961;52.940;6.834;2022-09-12T04:36:09;44.80;;;33.35;;
57025;SDS011;43961;52.940;6.834;2022-09-12T04:38:38;44.08;;;33.53;;
57025;SDS011;43961;52.940;6.834;2022-09-12T04:41:20;39.50;;;30.30;;
57025;SDS011;43961;52.940;6.834;2022-09-12T04:43:50;40.97;;;31.67;;
57025;SDS011;43961;52.940;6.834;2022-09-12T04:46:17;40.03;;;29.92;;
57025;SDS011;43961;52.940;6.834;2022-09-12T04:48:44;39.28;;;30.70;;
57025;SDS011;43961;52.940;6.834;2022-09-12T04:51:12;45.15;;;29.33;;
57025;SDS011;43961;52.940;6.834;2022-09-12T04:53:40;43.75;;;32.50;;
57025;SDS011;43961;52.940;6.834;2022-09-12T04:56:07;48.35;;;33.53;;
57025;SDS011;43961;52.940;6.834;2022-09-12T04:58:34;49.65;;;34.47;;
57025;SDS011;43961;52.940;6.834;2022-09-12T05:03:30;39.80;;;29.85;;
57025;SDS011;43961;52.940;6.834;2022-09-12T05:05:56;38.97;;;28.48;;
57025;SDS011;43961;52.940;6.834;2022-09-12T05:08:22;44.00;;;31.23;;
57025;SDS011;43961;52.940;6.834;2022-09-12T05:10:48;40.25;;;29.75;;
57025;SDS011;43961;52.940;6.834;2022-09-12T05:13:14;47.10;;;31.58;;
57025;SDS011;43961;52.940;6.834;2022-09-12T05:15:40;37.80;;;28.27;;
57025;SDS011;43961;52.940;6.834;2022-09-12T05:18:06;40.05;;;30.77;;
57025;SDS011;43961;52.940;6.834;2022-09-12T05:20:34;53.63;;;32.38;;
57025;SDS011;43961;52.940;6.834;2022-09-12T05:23:00;43.42;;;31.38;;
57025;SDS011;43961;52.940;6.834;2022-09-12T05:25:25;50.60;;;36.40;;
57025;SDS011;43961;52.940;6.834;2022-09-12T05:27:51;54.88;;;35.53;;
57025;SDS011;43961;52.940;6.834;2022-09-12T05:30:17;45.22;;;33.25;;
57025;SDS011;43961;52.940;6.834;2022-09-12T05:32:43;35.05;;;28.15;;
57025;SDS011;43961;52.940;6.834;2022-09-12T05:35:08;37.30;;;28.63;;
57025;SDS011;43961;52.940;6.834;2022-09-12T05:37:36;42.28;;;32.08;;
57025;SDS011;43961;52.940;6.834;2022-09-12T05:40:02;50.60;;;34.78;;
57025;SDS011;43961;52.940;6.834;2022-09-12T05:42:31;52.20;;;34.33;;
57025;SDS011;43961;52.940;6.834;2022-09-12T05:44:57;69.90;;;35.65;;
57025;SDS011;43961;52.940;6.834;2022-09-12T05:47:23;49.58;;;35.90;;
57025;SDS011;43961;52.940;6.834;2022-09-12T05:49:48;60.90;;;40.92;;
57025;SDS011;43961;52.940;6.834;2022-09-12T05:52:15;70.03;;;43.45;;
57025;SDS011;43961;52.940;6.834;2022-09-12T05:54:41;74.07;;;43.88;;
57025;SDS011;43961;52.940;6.834;2022-09-12T05:57:06;48.13;;;34.03;;
57025;SDS011;43961;52.940;6.834;2022-09-12T05:59:32;61.53;;;40.10;;
57025;SDS011;43961;52.940;6.834;2022-09-12T06:01:58;60.45;;;42.00;;
57025;SDS011;43961;52.940;6.834;2022-09-12T06:04:24;70.90;;;44.53;;
57025;SDS011;43961;52.940;6.834;2022-09-12T06:06:50;64.88;;;43.58;;
57025;SDS011;43961;52.940;6.834;2022-09-12T06:09:16;69.55;;;46.17;;
57025;SDS011;43961;52.940;6.834;2022-09-12T06:11:42;65.05;;;44.50;;
57025;SDS011;43961;52.940;6.834;2022-09-12T06:14:10;77.63;;;48.75;;
57025;SDS011;43961;52.940;6.834;2022-09-12T06:16:37;78.25;;;49.17;;
57025;SDS011;43961;52.940;6.834;2022-09-12T06:19:04;78.35;;;51.40;;
57025;SDS011;43961;52.940;6.834;2022-09-12T06:21:40;79.38;;;51.67;;
57025;SDS011;43961;52.940;6.834;2022-09-12T06:24:06;86.13;;;52.28;;
57025;SDS011;43961;52.940;6.834;2022-09-12T06:26:32;80.30;;;49.33;;
57025;SDS011;43961;52.940;6.834;2022-09-12T06:28:58;73.97;;;48.83;;
57025;SDS011;43961;52.940;6.834;2022-09-12T06:31:26;74.68;;;48.85;;
57025;SDS011;43961;52.940;6.834;2022-09-12T06:33:54;79.00;;;50.17;;
57025;SDS011;43961;52.940;6.834;2022-09-12T06:36:22;82.68;;;54.75;;
57025;SDS011;43961;52.940;6.834;2022-09-12T06:38:57;86.45;;;54.30;;
57025;SDS011;43961;52.940;6.834;2022-09-12T06:41:34;81.82;;;52.55;;
57025;SDS011;43961;52.940;6.834;2022-09-12T06:44:00;91.93;;;55.40;;
57025;SDS011;43961;52.940;6.834;2022-09-12T06:46:26;98.18;;;58.50;;
57025;SDS011;43961;52.940;6.834;2022-09-12T06:48:52;95.50;;;57.58;;
57025;SDS011;43961;52.940;6.834;2022-09-12T06:51:20;88.85;;;56.45;;
57025;SDS011;43961;52.940;6.834;2022-09-12T06:53:46;93.50;;;55.95;;
57025;SDS011;43961;52.940;6.834;2022-09-12T06:56:13;100.38;;;57.95;;
57025;SDS011;43961;52.940;6.834;2022-09-12T07:03:34;100.55;;;57.05;;
57025;SDS011;43961;52.940;6.834;2022-09-12T07:06:05;102.20;;;59.75;;
57025;SDS011;43961;52.940;6.834;2022-09-12T07:08:37;102.10;;;62.53;;
57025;SDS011;43961;52.940;6.834;2022-09-12T07:11:07;94.43;;;58.58;;
57025;SDS011;43961;52.940;6.834;2022-09-12T07:13:33;101.90;;;59.75;;
57025;SDS011;43961;52.940;6.834;2022-09-12T07:16:02;100.28;;;60.15;;
57025;SDS011;43961;52.940;6.834;2022-09-12T07:18:29;103.95;;;62.83;;
57025;SDS011;43961;52.940;6.834;2022-09-12T07:20:55;106.60;;;62.67;;
57025;SDS011;43961;52.940;6.834;2022-09-12T07:23:23;110.40;;;63.60;;
57025;SDS011;43961;52.940;6.834;2022-09-12T07:25:52;107.75;;;60.05;;
57025;SDS011;43961;52.940;6.834;2022-09-12T07:28:19;104.85;;;61.22;;
57025;SDS011;43961;52.940;6.834;2022-09-12T07:30:44;108.05;;;62.88;;
57025;SDS011;43961;52.940;6.834;2022-09-12T07:33:10;94.85;;;59.30;;
57025;SDS011;43961;52.940;6.834;2022-09-12T07:35:36;98.05;;;58.13;;
57025;SDS011;43961;52.940;6.834;2022-09-12T07:38:01;91.18;;;56.53;;
57025;SDS011;43961;52.940;6.834;2022-09-12T07:40:28;96.85;;;58.28;;
57025;SDS011;43961;52.940;6.834;2022-09-12T07:42:53;102.30;;;58.35;;
57025;SDS011;43961;52.940;6.834;2022-09-12T07:45:19;104.32;;;60.92;;
57025;SDS011;43961;52.940;6.834;2022-09-12T07:47:44;101.72;;;56.65;;
57025;SDS011;43961;52.940;6.834;2022-09-12T07:50:10;99.28;;;58.70;;
57025;SDS011;43961;52.940;6.834;2022-09-12T07:52:36;89.45;;;55.95;;
57025;SDS011;43961;52.940;6.834;2022-09-12T07:55:01;87.35;;;51.78;;
57025;SDS011;43961;52.940;6.834;2022-09-12T07:57:27;91.30;;;54.97;;
57025;SDS011;43961;52.940;6.834;2022-09-12T07:59:53;96.35;;;52.88;;
57025;SDS011;43961;52.940;6.834;2022-09-12T08:02:19;84.47;;;53.08;;
57025;SDS011;43961;52.940;6.834;2022-09-12T08:04:45;86.13;;;51.00;;
57025;SDS011;43961;52.940;6.834;2022-09-12T08:07:12;81.75;;;49.25;;
57025;SDS011;43961;52.940;6.834;2022-09-12T08:09:37;72.72;;;45.10;;
57025;SDS011;43961;52.940;6.834;2022-09-12T08:12:03;67.13;;;46.05;;
57025;SDS011;43961;52.940;6.834;2022-09-12T08:14:29;64.45;;;41.30;;
57025;SDS011;43961;52.940;6.834;2022-09-12T08:16:54;64.38;;;41.35;;
57025;SDS011;43961;52.940;6.834;2022-09-12T08:19:20;67.65;;;42.75;;
57025;SDS011;43961;52.940;6.834;2022-09-12T08:21:46;56.17;;;36.72;;
57025;SDS011;43961;52.940;6.834;2022-09-12T08:24:12;56.88;;;36.17;;
57025;SDS011;43961;52.940;6.834;2022-09-12T08:26:38;49.97;;;34.45;;
57025;SDS011;43961;52.940;6.834;2022-09-12T08:29:04;52.20;;;32.40;;
57025;SDS011;43961;52.940;6.834;2022-09-12T08:31:30;45.40;;;30.63;;
57025;SDS011;43961;52.940;6.834;2022-09-12T08:34:00;50.13;;;30.98;;
57025;SDS011;43961;52.940;6.834;2022-09-12T08:36:27;44.03;;;30.70;;
57025;SDS011;43961;52.940;6.834;2022-09-12T08:39:27;56.88;;;28.30;;
57025;SDS011;43961;52.940;6.834;2022-09-12T08:41:46;42.40;;;27.30;;
57025;SDS011;43961;52.940;6.834;2022-09-12T08:50:05;38.55;;;26.20;;
57025;SDS011;43961;52.940;6.834;2022-09-12T08:52:51;38.58;;;26.58;;
57025;SDS011;43961;52.940;6.834;2022-09-12T08:55:23;37.33;;;25.25;;
57025;SDS011;43961;52.940;6.834;2022-09-12T08:58:09;34.85;;;26.27;;
57025;SDS011;43961;52.940;6.834;2022-09-12T09:05:59;35.35;;;24.55;;
57025;SDS011;43961;52.940;6.834;2022-09-12T09:14:05;42.65;;;26.15;;
57025;SDS011;43961;52.940;6.834;2022-09-12T09:17:02;43.85;;;25.52;;
57025;SDS011;43961;52.940;6.834;2022-09-12T09:19:37;34.85;;;25.25;;
57025;SDS011;43961;52.940;6.834;2022-09-12T09:22:16;42.88;;;28.08;;
57025;SDS011;43961;52.940;6.834;2022-09-12T09:24:54;40.25;;;26.70;;
57025;SDS011;43961;52.940;6.834;2022-09-12T09:27:30;48.97;;;30.65;;
57025;SDS011;43961;52.940;6.834;2022-09-12T09:30:01;63.63;;;36.55;;
57025;SDS011;43961;52.940;6.834;2022-09-12T09:32:29;63.80;;;38.15;;
57025;SDS011;43961;52.940;6.834;2022-09-12T09:35:00;55.65;;;35.65;;
57025;SDS011;43961;52.940;6.834;2022-09-12T09:38:05;63.92;;;37.35;;
57025;SDS011;43961;52.940;6.834;2022-09-12T09:43:25;64.38;;;39.63;;
57025;SDS011;43961;52.940;6.834;2022-09-12T09:45:53;68.95;;;39.35;;
57025;SDS011;43961;52.940;6.834;2022-09-12T09:48:27;78.75;;;44.35;;
57025;SDS011;43961;52.940;6.834;2022-09-12T09:50:56;68.70;;;43.30;;
57025;SDS011;43961;52.940;6.834;2022-09-12T09:56:04;75.63;;;46.50;;
57025;SDS011;43961;52.940;6.834;2022-09-12T09:58:35;73.57;;;44.50;;
57025;SDS011;43961;52.940;6.834;2022-09-12T10:01:04;76.10;;;46.40;;
57025;SDS011;43961;52.940;6.834;2022-09-12T10:03:37;68.28;;;43.60;;
57025;SDS011;43961;52.940;6.834;2022-09-12T10:06:07;80.82;;;44.78;;
57025;SDS011;43961;52.940;6.834;2022-09-12T10:08:51;85.43;;;46.03;;
57025;SDS011;43961;52.940;6.834;2022-09-12T10:11:29;72.82;;;41.65;;
57025;SDS011;43961;52.940;6.834;2022-09-12T10:13:57;68.20;;;41.55;;
57025;SDS011;43961;52.940;6.834;2022-09-12T10:21:52;63.63;;;38.25;;
57025;SDS011;43961;52.940;6.834;2022-09-12T10:25:02;82.63;;;39.58;;
57025;SDS011;43961;52.940;6.834;2022-09-12T10:27:19;70.50;;;41.92;;
57025;SDS011;43961;52.940;6.834;2022-09-12T10:29:52;64.55;;;37.55;;
57025;SDS011;43961;52.940;6.834;2022-09-12T10:35:03;57.75;;;34.17;;
57025;SDS011;43961;52.940;6.834;2022-09-12T10:37:36;63.65;;;36.03;;
57025;SDS011;43961;52.940;6.834;2022-09-12T10:40:07;66.20;;;38.35;;
57025;SDS011;43961;52.940;6.834;2022-09-12T10:42:47;49.22;;;32.88;;
57025;SDS011;43961;52.940;6.834;2022-09-12T10:47:53;51.55;;;31.50;;
57025;SDS011;43961;52.940;6.834;2022-09-12T11:01:36;45.72;;;30.25;;
57025;SDS011;43961;52.940;6.834;2022-09-12T11:07:12;46.83;;;30.33;;
57025;SDS011;43961;52.940;6.834;2022-09-12T11:10:02;48.08;;;28.45;;
57025;SDS011;43961;52.940;6.834;2022-09-12T11:12:54;49.33;;;30.25;;
57025;SDS011;43961;52.940;6.834;2022-09-12T11:27:06;44.47;;;28.20;;
57025;SDS011;43961;52.940;6.834;2022-09-12T11:29:46;38.72;;;25.17;;
57025;SDS011;43961;52.940;6.834;2022-09-12T11:37:44;40.08;;;26.73;;
57025;SDS011;43961;52.940;6.834;2022-09-12T11:42:47;45.05;;;28.02;;
57025;SDS011;43961;52.940;6.834;2022-09-12T11:45:21;41.72;;;27.67;;
57025;SDS011;43961;52.940;6.834;2022-09-12T11:47:53;42.38;;;25.17;;
57025;SDS011;43961;52.940;6.834;2022-09-12T11:50:26;40.33;;;22.80;;
57025;SDS011;43961;52.940;6.834;2022-09-12T11:52:54;36.60;;;24.50;;
57025;SDS011;43961;52.940;6.834;2022-09-12T11:55:28;35.35;;;22.48;;
57025;SDS011;43961;52.940;6.834;2022-09-12T11:58:03;41.15;;;24.08;;
57025;SDS011;43961;52.940;6.834;2022-09-12T12:00:43;37.08;;;22.85;;
57025;SDS011;43961;52.940;6.834;2022-09-12T12:03:19;33.92;;;23.80;;
57025;SDS011;43961;52.940;6.834;2022-09-12T12:06:03;37.35;;;21.75;;
57025;SDS011;43961;52.940;6.834;2022-09-12T12:08:40;29.73;;;21.48;;
57025;SDS011;43961;52.940;6.834;2022-09-12T12:11:09;43.03;;;25.33;;
57025;SDS011;43961;52.940;6.834;2022-09-12T12:13:50;36.20;;;22.80;;
57025;SDS011;43961;52.940;6.834;2022-09-12T12:16:27;32.03;;;21.98;;
57025;SDS011;43961;52.940;6.834;2022-09-12T12:18:56;29.92;;;22.10;;
57025;SDS011;43961;52.940;6.834;2022-09-12T12:29:12;32.22;;;19.85;;
57025;SDS011;43961;52.940;6.834;2022-09-12T12:32:25;36.10;;;22.30;;
57025;SDS011;43961;52.940;6.834;2022-09-12T12:47:42;31.35;;;19.08;;
57025;SDS011;43961;52.940;6.834;2022-09-12T12:53:00;28.15;;;18.63;;
57025;SDS011;43961;52.940;6.834;2022-09-12T12:55:34;31.67;;;20.25;;
57025;SDS011;43961;52.940;6.834;2022-09-12T12:58:03;27.42;;;20.42;;
57025;SDS011;43961;52.940;6.834;2022-09-12T13:00:35;37.40;;;23.15;;
57025;SDS011;43961;52.940;6.834;2022-09-12T13:05:43;33.30;;;20.20;;
57025;SDS011;43961;52.940;6.834;2022-09-12T13:10:50;43.55;;;23.63;;
57025;SDS011;43961;52.940;6.834;2022-09-12T13:13:22;27.50;;;19.70;;
57025;SDS011;43961;52.940;6.834;2022-09-12T13:15:55;29.33;;;19.98;;
57025;SDS011;43961;52.940;6.834;2022-09-12T13:18:27;27.63;;;19.05;;
57025;SDS011;43961;52.940;6.834;2022-09-12T13:23:43;26.60;;;18.75;;
57025;SDS011;43961;52.940;6.834;2022-09-12T13:26:23;33.97;;;20.48;;
57025;SDS011;43961;52.940;6.834;2022-09-12T13:28:49;29.92;;;22.80;;
57025;SDS011;43961;52.940;6.834;2022-09-12T13:31:39;26.90;;;19.13;;
57025;SDS011;43961;52.940;6.834;2022-09-12T13:34:06;41.13;;;24.00;;
57025;SDS011;43961;52.940;6.834;2022-09-12T13:39:11;39.80;;;24.20;;
57025;SDS011;43961;52.940;6.834;2022-09-12T13:44:11;31.80;;;22.70;;
57025;SDS011;43961;52.940;6.834;2022-09-12T13:46:41;31.25;;;20.63;;
57025;SDS011;43961;52.940;6.834;2022-09-12T13:49:15;27.80;;;20.38;;
57025;SDS011;43961;52.940;6.834;2022-09-12T13:52:05;26.70;;;18.83;;
57025;SDS011;43961;52.940;6.834;2022-09-12T13:54:33;25.15;;;17.58;;
57025;SDS011;43961;52.940;6.834;2022-09-12T13:57:02;26.17;;;21.33;;
57025;SDS011;43961;52.940;6.834;2022-09-12T13:59:36;25.67;;;18.20;;
57025;SDS011;43961;52.940;6.834;2022-09-12T14:02:19;23.65;;;17.30;;
57025;SDS011;43961;52.940;6.834;2022-09-12T14:04:47;15.30;;;12.82;;
57025;SDS011;43961;52.940;6.834;2022-09-12T14:07:53;17.25;;;14.07;;
57025;SDS011;43961;52.940;6.834;2022-09-12T14:10:33;17.70;;;13.40;;
57025;SDS011;43961;52.940;6.834;2022-09-12T14:13:01;17.75;;;12.77;;
57025;SDS011;43961;52.940;6.834;2022-09-12T14:15:30;14.30;;;12.57;;
57025;SDS011;43961;52.940;6.834;2022-09-12T14:18:00;13.00;;;11.57;;
57025;SDS011;43961;52.940;6.834;2022-09-12T14:20:28;18.42;;;13.68;;
57025;SDS011;43961;52.940;6.834;2022-09-12T14:22:58;21.17;;;13.60;;
57025;SDS011;43961;52.940;6.834;2022-09-12T14:25:26;15.90;;;13.02;;
57025;SDS011;43961;52.940;6.834;2022-09-12T14:27:56;15.05;;;11.68;;
57025;SDS011;43961;52.940;6.834;2022-09-12T14:30:29;20.67;;;13.18;;
57025;SDS011;43961;52.940;6.834;2022-09-12T14:33:11;16.45;;;12.38;;
57025;SDS011;43961;52.940;6.834;2022-09-12T14:35:43;20.10;;;15.38;;
57025;SDS011;43961;52.940;6.834;2022-09-12T14:40:47;16.42;;;12.90;;
57025;SDS011;43961;52.940;6.834;2022-09-12T14:46:05;22.88;;;15.05;;
57025;SDS011;43961;52.940;6.834;2022-09-12T14:48:42;17.70;;;13.15;;
57025;SDS011;43961;52.940;6.834;2022-09-12T14:51:20;18.65;;;13.35;;
57025;SDS011;43961;52.940;6.834;2022-09-12T14:53:51;19.00;;;15.30;;
57025;SDS011;43961;52.940;6.834;2022-09-12T14:56:19;19.02;;;15.48;;
57025;SDS011;43961;52.940;6.834;2022-09-12T14:58:46;19.67;;;14.48;;
57025;SDS011;43961;52.940;6.834;2022-09-12T15:06:21;20.00;;;14.48;;
57025;SDS011;43961;52.940;6.834;2022-09-12T15:08:54;21.40;;;15.45;;
57025;SDS011;43961;52.940;6.834;2022-09-12T15:11:21;20.27;;;14.43;;
57025;SDS011;43961;52.940;6.834;2022-09-12T15:13:47;22.83;;;15.88;;
57025;SDS011;43961;52.940;6.834;2022-09-12T15:16:13;18.60;;;13.95;;
57025;SDS011;43961;52.940;6.834;2022-09-12T15:18:39;18.30;;;14.52;;
57025;SDS011;43961;52.940;6.834;2022-09-12T15:21:06;18.50;;;13.27;;
57025;SDS011;43961;52.940;6.834;2022-09-12T15:23:50;14.63;;;11.77;;
57025;SDS011;43961;52.940;6.834;2022-09-12T15:26:21;24.77;;;13.15;;
57025;SDS011;43961;52.940;6.834;2022-09-12T15:28:51;13.35;;;10.77;;
57025;SDS011;43961;52.940;6.834;2022-09-12T15:31:27;19.73;;;12.43;;
57025;SDS011;43961;52.940;6.834;2022-09-12T15:33:55;15.80;;;11.73;;
57025;SDS011;43961;52.940;6.834;2022-09-12T15:36:22;14.68;;;11.02;;
57025;SDS011;43961;52.940;6.834;2022-09-12T15:38:49;18.05;;;11.93;;
57025;SDS011;43961;52.940;6.834;2022-09-12T15:41:22;12.55;;;10.65;;
57025;SDS011;43961;52.940;6.834;2022-09-12T15:43:53;11.70;;;10.50;;
57025;SDS011;43961;52.940;6.834;2022-09-12T15:46:18;15.02;;;11.50;;
57025;SDS011;43961;52.940;6.834;2022-09-12T15:48:44;14.75;;;11.75;;
57025;SDS011;43961;52.940;6.834;2022-09-12T15:51:14;20.17;;;10.52;;
57025;SDS011;43961;52.940;6.834;2022-09-12T15:53:42;12.68;;;11.27;;
57025;SDS011;43961;52.940;6.834;2022-09-12T15:56:08;12.57;;;9.88;;
57025;SDS011;43961;52.940;6.834;2022-09-12T15:58:34;10.88;;;9.77;;
57025;SDS011;43961;52.940;6.834;2022-09-12T16:01:00;13.50;;;9.52;;
57025;SDS011;43961;52.940;6.834;2022-09-12T16:03:27;11.63;;;9.23;;
57025;SDS011;43961;52.940;6.834;2022-09-12T16:05:54;11.25;;;10.05;;
57025;SDS011;43961;52.940;6.834;2022-09-12T16:10:48;16.05;;;10.07;;
57025;SDS011;43961;52.940;6.834;2022-09-12T16:13:36;22.27;;;9.35;;
57025;SDS011;43961;52.940;6.834;2022-09-12T16:16:02;13.23;;;9.90;;
57025;SDS011;43961;52.940;6.834;2022-09-12T16:18:28;11.50;;;8.90;;
57025;SDS011;43961;52.940;6.834;2022-09-12T16:20:54;10.93;;;9.02;;
57025;SDS011;43961;52.940;6.834;2022-09-12T16:23:20;11.63;;;10.02;;
57025;SDS011;43961;52.940;6.834;2022-09-12T16:25:59;14.23;;;8.98;;
57025;SDS011;43961;52.940;6.834;2022-09-12T16:28:27;13.57;;;11.15;;
57025;SDS011;43961;52.940;6.834;2022-09-12T16:30:56;11.27;;;10.18;;
57025;SDS011;43961;52.940;6.834;2022-09-12T16:33:23;14.15;;;11.23;;
57025;SDS011;43961;52.940;6.834;2022-09-12T16:35:49;24.02;;;11.75;;
57025;SDS011;43961;52.940;6.834;2022-09-12T16:38:19;13.63;;;9.43;;
57025;SDS011;43961;52.940;6.834;2022-09-12T16:40:45;13.40;;;12.00;;
57025;SDS011;43961;52.940;6.834;2022-09-12T16:43:11;14.23;;;11.23;;
57025;SDS011;43961;52.940;6.834;2022-09-12T16:45:37;14.88;;;11.18;;
57025;SDS011;43961;52.940;6.834;2022-09-12T16:48:03;12.75;;;9.27;;
57025;SDS011;43961;52.940;6.834;2022-09-12T16:50:29;15.25;;;10.30;;
57025;SDS011;43961;52.940;6.834;2022-09-12T16:52:54;17.35;;;11.35;;
57025;SDS011;43961;52.940;6.834;2022-09-12T16:55:20;17.92;;;11.27;;
57025;SDS011;43961;52.940;6.834;2022-09-12T16:57:47;14.85;;;12.25;;
57025;SDS011;43961;52.940;6.834;2022-09-12T17:00:13;13.13;;;10.07;;
57025;SDS011;43961;52.940;6.834;2022-09-12T17:02:39;15.27;;;12.30;;
57025;SDS011;43961;52.940;6.834;2022-09-12T17:05:05;12.50;;;9.93;;
57025;SDS011;43961;52.940;6.834;2022-09-12T17:07:31;13.98;;;10.48;;
57025;SDS011;43961;52.940;6.834;2022-09-12T17:09:58;13.57;;;9.97;;
57025;SDS011;43961;52.940;6.834;2022-09-12T17:12:23;15.00;;;10.13;;
57025;SDS011;43961;52.940;6.834;2022-09-12T17:14:49;11.63;;;9.70;;
57025;SDS011;43961;52.940;6.834;2022-09-12T17:17:15;13.40;;;9.75;;
57025;SDS011;43961;52.940;6.834;2022-09-12T17:19:41;10.52;;;9.00;;
57025;SDS011;43961;52.940;6.834;2022-09-12T17:22:07;11.20;;;9.93;;
57025;SDS011;43961;52.940;6.834;2022-09-12T17:24:33;14.13;;;10.70;;
57025;SDS011;43961;52.940;6.834;2022-09-12T17:26:59;11.57;;;9.88;;
57025;SDS011;43961;52.940;6.834;2022-09-12T17:29:24;11.75;;;9.25;;
57025;SDS011;43961;52.940;6.834;2022-09-12T17:31:50;11.73;;;9.77;;
57025;SDS011;43961;52.940;6.834;2022-09-12T17:34:16;11.25;;;9.23;;
57025;SDS011;43961;52.940;6.834;2022-09-12T17:36:42;13.68;;;10.27;;
57025;SDS011;43961;52.940;6.834;2022-09-12T17:39:09;14.20;;;10.18;;